Time;durP1;ratioP1;P1;durP2;ratioP2;P2;SDS_P1;SDS_P2;PMS_P1;PMS_P2;Temp;Humidity;BMP_temperature;BMP_pressure;BME280_temperature;BME280_humidity;BME280_pressure;Samples;Min_cycle;Max_cycle;Signal;HPM_P1;HPM_P2
2021/07/09 00:01:23;;;;;;;;;;;;;;;18.37;81.94;101779.66;5113402;28;19969;-68
2021/07/09 00:03:50;;;;;;;;;;;;;;;18.37;82.08;101781.44;5113270;28;19923;-68
2021/07/09 00:06:18;;;;;;;;;;;;;;;18.36;81.53;101785.88;5113175;28;19923;-68
2021/07/09 00:08:44;;;;;;;;;;;;;;;18.37;81.54;101782.31;5113262;28;19946;-69
2021/07/09 00:11:11;;;;;;;;;;;;;;;18.35;81.65;101786.00;5112764;28;19931;-69
2021/07/09 00:13:38;;;;;;;;;;;;;;;18.41;81.65;101783.75;5113120;28;19924;-68
2021/07/09 00:16:05;;;;;;;;;;;;;;;18.31;81.34;101789.78;5113177;28;19927;-69
2021/07/09 00:18:33;;;;;;;;;;;;;;;18.36;81.63;101782.41;5113418;28;19936;-68
2021/07/09 00:21:00;;;;;;;;;;;;;;;18.40;81.68;101787.34;5112921;28;19934;-68
2021/07/09 00:23:27;;;;;;;;;;;;;;;18.24;81.88;101786.78;5113028;28;19931;-68
2021/07/09 00:25:53;;;;;;;;;;;;;;;18.35;82.11;101796.53;5112983;28;20404;-69
2021/07/09 00:28:20;;;;;;;;;;;;;;;18.11;83.16;101791.19;5113162;28;19928;-69
2021/07/09 00:30:46;;;;;;;;;;;;;;;18.19;82.75;101802.91;5112733;28;19931;-68
2021/07/09 00:33:13;;;;;;;;;;;;;;;18.25;82.97;101806.88;5112901;28;20393;-69
2021/07/09 00:35:41;;;;;;;;;;;;;;;18.33;82.77;101811.59;5113195;28;19927;-69
2021/07/09 00:38:07;;;;;;;;;;;;;;;18.38;82.24;101805.06;5112548;28;20290;-68
2021/07/09 00:40:34;;;;;;;;;;;;;;;18.33;82.39;101801.06;5113280;28;19924;-68
2021/07/09 00:43:01;;;;;;;;;;;;;;;18.27;82.65;101797.91;5112868;28;19930;-69
2021/07/09 00:45:27;;;;;;;;;;;;;;;18.26;82.61;101803.28;5113280;28;19924;-68
2021/07/09 00:47:54;;;;;;;;;;;;;;;18.26;82.72;101800.66;5112833;28;20022;-68
2021/07/09 00:50:20;;;;;;;;;;;;;;;18.09;83.30;101803.66;5112753;28;19930;-68
2021/07/09 00:52:48;;;;;;;;;;;;;;;18.20;82.97;101790.56;5112837;28;19924;-68
2021/07/09 00:55:16;;;;;;;;;;;;;;;18.22;82.97;101800.03;5112580;28;19923;-68
2021/07/09 00:57:45;;;;;;;;;;;;;;;18.23;82.68;101796.44;5113029;28;19923;-68
2021/07/09 01:00:12;;;;;;;;;;;;;;;18.11;83.28;101799.09;5112657;28;19930;-69
2021/07/09 01:02:39;;;;;;;;;;;;;;;18.21;83.12;101805.41;5112484;28;19924;-68
2021/07/09 01:05:07;;;;;;;;;;;;;;;18.19;83.32;101805.53;5112283;28;20394;-68
2021/07/09 01:07:34;;;;;;;;;;;;;;;18.17;83.41;101809.22;5112917;28;19931;-68
2021/07/09 01:10:03;;;;;;;;;;;;;;;18.22;83.58;101804.47;5112358;28;20289;-68
2021/07/09 01:12:30;;;;;;;;;;;;;;;18.25;83.38;101798.97;5112489;28;19928;-68
2021/07/09 01:14:57;;;;;;;;;;;;;;;18.21;83.55;101805.41;5112623;28;19930;-68
2021/07/09 01:17:23;;;;;;;;;;;;;;;18.25;83.30;101807.72;5112745;28;19923;-68
2021/07/09 01:19:50;;;;;;;;;;;;;;;18.30;83.27;101811.84;5112601;28;19928;-68
2021/07/09 01:22:17;;;;;;;;;;;;;;;18.31;83.69;101813.50;5113967;28;19924;-68
2021/07/09 01:24:45;;;;;;;;;;;;;;;18.23;83.74;101820.16;5116276;28;19928;-68
2021/07/09 01:27:12;;;;;;;;;;;;;;;18.29;83.87;101821.53;5116717;28;19932;-68
2021/07/09 01:29:39;;;;;;;;;;;;;;;18.26;83.77;101821.72;5116471;28;19924;-69
2021/07/09 01:32:05;;;;;;;;;;;;;;;18.21;83.78;101824.72;5115927;27;19924;-68
2021/07/09 01:34:32;;;;;;;;;;;;;;;18.20;83.67;101816.91;5116165;28;19952;-69
2021/07/09 01:37:10;;;;;;;;;;;;;;;18.20;83.23;101820.38;5115886;28;20262;-68
2021/07/09 01:39:36;;;;;;;;;;;;;;;18.09;83.86;101819.44;5116531;28;19931;-68
2021/07/09 01:42:05;;;;;;;;;;;;;;;18.10;83.70;101810.59;5115810;28;19931;-68
2021/07/09 01:44:32;;;;;;;;;;;;;;;18.06;84.05;101809.97;5116417;28;19931;-68
2021/07/09 01:46:59;;;;;;;;;;;;;;;18.09;83.63;101806.28;5115642;28;19931;-68
2021/07/09 01:49:25;;;;;;;;;;;;;;;17.96;84.18;101809.78;5116174;28;20294;-69
2021/07/09 01:51:53;;;;;;;;;;;;;;;18.02;84.07;101813.75;5115578;28;19930;-68
2021/07/09 01:54:19;;;;;;;;;;;;;;;17.89;84.89;101813.78;5115620;28;19930;-69
2021/07/09 01:56:46;;;;;;;;;;;;;;;17.91;84.47;101801.34;5115912;28;19923;-69
2021/07/09 01:59:14;;;;;;;;;;;;;;;17.83;85.02;101803.69;5115977;28;19924;-68
2021/07/09 02:01:40;;;;;;;;;;;;;;;17.74;85.77;101804.25;5115800;28;19935;-69
2021/07/09 02:04:07;;;;;;;;;;;;;;;17.84;85.49;101810.63;5115310;28;20006;-69
2021/07/09 02:06:34;;;;;;;;;;;;;;;18.21;83.78;101810.66;5115532;28;20317;-68
2021/07/09 02:09:00;;;;;;;;;;;;;;;18.19;83.42;101813.44;5115121;28;20299;-68
2021/07/09 02:11:27;;;;;;;;;;;;;;;18.15;83.49;101817.22;5115446;28;19923;-69
2021/07/09 02:13:53;;;;;;;;;;;;;;;18.14;83.94;101812.06;5115045;28;20293;-68
2021/07/09 02:16:21;;;;;;;;;;;;;;;18.24;83.10;101813.13;5115460;28;20025;-68
2021/07/09 02:18:48;;;;;;;;;;;;;;;18.37;82.07;101813.91;5115370;28;19924;-68
2021/07/09 02:21:15;;;;;;;;;;;;;;;18.32;82.41;101813.41;5115169;28;19938;-68
2021/07/09 02:23:41;;;;;;;;;;;;;;;18.34;81.87;101824.69;5115510;28;19950;-69
2021/07/09 02:26:08;;;;;;;;;;;;;;;18.34;81.26;101824.69;5115239;28;19923;-69
2021/07/09 02:28:34;;;;;;;;;;;;;;;18.41;81.02;101830.34;5114944;28;19924;-69
2021/07/09 02:31:01;;;;;;;;;;;;;;;18.37;80.63;101829.72;5115095;28;19928;-69
2021/07/09 02:33:29;;;;;;;;;;;;;;;18.44;80.32;101830.94;5114182;28;19924;-69
2021/07/09 02:35:56;;;;;;;;;;;;;;;18.68;79.11;101838.91;5114666;28;19923;-69
2021/07/09 02:38:22;;;;;;;;;;;;;;;18.64;78.90;101837.44;5114861;28;19931;-69
2021/07/09 02:40:49;;;;;;;;;;;;;;;18.66;79.08;101840.81;5114565;28;20405;-69
2021/07/09 02:43:15;;;;;;;;;;;;;;;18.82;78.78;101853.75;5114922;28;19924;-69
2021/07/09 02:45:42;;;;;;;;;;;;;;;18.89;78.61;101851.53;5115075;28;19923;-69
2021/07/09 02:48:08;;;;;;;;;;;;;;;18.98;78.33;101850.00;5114488;28;19924;-69
2021/07/09 02:50:36;;;;;;;;;;;;;;;19.00;78.67;101851.56;5114950;28;19930;-70
2021/07/09 02:53:03;;;;;;;;;;;;;;;19.14;77.82;101851.41;5114578;28;19957;-69
2021/07/09 02:55:30;;;;;;;;;;;;;;;19.19;77.49;101855.47;5114332;28;20382;-69
2021/07/09 02:57:56;;;;;;;;;;;;;;;19.20;77.64;101852.75;5114585;28;19931;-69
2021/07/09 03:00:23;;;;;;;;;;;;;;;19.23;77.72;101855.16;5114804;28;19923;-69
2021/07/09 03:02:50;;;;;;;;;;;;;;;19.24;77.33;101856.84;5114095;28;19930;-69
2021/07/09 03:05:17;;;;;;;;;;;;;;;19.22;78.34;101856.13;5114590;27;19924;-69
2021/07/09 03:07:45;;;;;;;;;;;;;;;19.26;78.35;101857.56;5114525;28;19924;-69
2021/07/09 03:10:12;;;;;;;;;;;;;;;19.38;77.45;101855.81;5114263;28;19942;-69
2021/07/09 03:12:39;;;;;;;;;;;;;;;19.46;77.36;101842.88;5114199;28;19931;-69
2021/07/09 03:15:07;;;;;;;;;;;;;;;19.45;77.37;101840.38;5114290;28;20305;-69
2021/07/09 03:17:34;;;;;;;;;;;;;;;19.46;77.87;101837.59;5114439;28;19924;-69
2021/07/09 03:20:00;;;;;;;;;;;;;;;19.57;77.77;101835.00;5113735;28;19924;-69
2021/07/09 03:22:27;;;;;;;;;;;;;;;19.61;77.39;101840.03;5114184;28;20153;-69
2021/07/09 03:24:55;;;;;;;;;;;;;;;19.67;77.32;101848.34;5113745;27;19924;-69
2021/07/09 03:27:21;;;;;;;;;;;;;;;19.57;77.26;101842.06;5113952;28;19927;-69
2021/07/09 03:29:48;;;;;;;;;;;;;;;19.69;77.42;101848.25;5113632;28;20404;-69
2021/07/09 03:32:14;;;;;;;;;;;;;;;19.77;76.75;101848.50;5114012;28;19923;-69
2021/07/09 03:34:41;;;;;;;;;;;;;;;19.75;77.08;101853.03;5114052;28;19923;-69
2021/07/09 03:37:08;;;;;;;;;;;;;;;19.79;76.87;101846.59;5113497;28;20399;-69
2021/07/09 03:39:34;;;;;;;;;;;;;;;19.74;77.33;101846.94;5113716;28;19924;-69
2021/07/09 03:42:02;;;;;;;;;;;;;;;19.88;76.83;101853.78;5113272;28;20289;-69
2021/07/09 03:44:29;;;;;;;;;;;;;;;19.95;76.47;101846.22;5113825;28;19955;-69
2021/07/09 03:46:56;;;;;;;;;;;;;;;19.96;77.85;101846.13;5113509;28;19930;-70
2021/07/09 03:49:22;;;;;;;;;;;;;;;20.09;76.77;101847.78;5113521;28;19941;-69
2021/07/09 03:51:49;;;;;;;;;;;;;;;20.10;76.53;101858.25;5113229;28;19930;-68
2021/07/09 03:54:15;;;;;;;;;;;;;;;20.07;76.77;101855.84;5113377;28;19923;-68
2021/07/09 03:56:42;;;;;;;;;;;;;;;20.17;77.05;101858.63;5113464;28;20465;-68
2021/07/09 03:59:10;;;;;;;;;;;;;;;20.16;76.53;101857.75;5113041;28;20385;-68
2021/07/09 04:01:37;;;;;;;;;;;;;;;20.16;76.16;101865.69;5113590;28;19924;-68
2021/07/09 04:04:03;;;;;;;;;;;;;;;20.02;77.12;101874.69;5113039;28;19931;-69
2021/07/09 04:06:30;;;;;;;;;;;;;;;19.94;77.83;101868.34;5113292;28;19923;-69
2021/07/09 04:08:57;;;;;;;;;;;;;;;19.89;77.84;101867.84;5112787;28;19928;-69
2021/07/09 04:11:23;;;;;;;;;;;;;;;19.95;78.13;101870.84;5113185;28;20401;-69
2021/07/09 04:13:50;;;;;;;;;;;;;;;20.01;78.29;101880.09;5113130;28;19958;-69
2021/07/09 04:16:18;;;;;;;;;;;;;;;20.09;77.85;101879.50;5113448;28;19925;-69
2021/07/09 04:18:44;;;;;;;;;;;;;;;19.94;78.84;101882.38;5113298;28;19958;-69
2021/07/09 04:21:11;;;;;;;;;;;;;;;20.04;78.28;101889.56;5112958;28;19931;-69
2021/07/09 04:23:38;;;;;;;;;;;;;;;19.91;78.90;101887.03;5113228;28;19930;-69
2021/07/09 04:26:04;;;;;;;;;;;;;;;20.11;79.23;101894.25;5112727;28;19924;-69
2021/07/09 04:28:31;;;;;;;;;;;;;;;20.20;78.66;101900.66;5113199;28;19924;-69
2021/07/09 04:30:57;;;;;;;;;;;;;;;20.23;78.42;101903.06;5112693;28;19924;-68
2021/07/09 04:33:25;;;;;;;;;;;;;;;20.23;77.12;101900.41;5112846;28;20381;-68
2021/07/09 04:35:52;;;;;;;;;;;;;;;20.15;77.38;101908.09;5112948;28;19924;-68
2021/07/09 04:38:19;;;;;;;;;;;;;;;20.30;76.82;101908.72;5112856;28;19937;-68
2021/07/09 04:40:45;;;;;;;;;;;;;;;20.47;76.42;101910.03;5112729;28;20370;-68
2021/07/09 04:43:12;;;;;;;;;;;;;;;20.61;75.78;101915.09;5113018;28;19924;-69
2021/07/09 04:45:38;;;;;;;;;;;;;;;20.72;75.71;101912.44;5113002;28;19947;-68
2021/07/09 04:48:05;;;;;;;;;;;;;;;20.62;75.23;101914.97;5112574;28;19938;-68
2021/07/09 04:50:33;;;;;;;;;;;;;;;20.79;75.23;101924.22;5112703;28;20370;-68
2021/07/09 04:53:00;;;;;;;;;;;;;;;20.95;75.27;101928.28;5112478;28;19931;-69
2021/07/09 04:55:27;;;;;;;;;;;;;;;21.18;74.33;101932.53;5112600;28;19924;-68
2021/07/09 04:57:53;;;;;;;;;;;;;;;21.16;73.52;101938.91;5114966;28;19928;-68
2021/07/09 05:00:20;;;;;;;;;;;;;;;21.23;73.92;101933.00;5117106;28;19924;-68
2021/07/09 05:02:47;;;;;;;;;;;;;;;21.49;73.70;101930.88;5116388;28;19924;-69
2021/07/09 05:05:15;;;;;;;;;;;;;;;21.50;72.76;101931.72;5116762;28;19924;-69
2021/07/09 05:07:43;;;;;;;;;;;;;;;21.49;72.01;101933.53;5116909;28;19968;-68
2021/07/09 05:10:10;;;;;;;;;;;;;;;21.39;72.12;101932.59;5116707;28;19924;-70
2021/07/09 05:12:37;;;;;;;;;;;;;;;21.73;71.12;101935.09;5116695;28;20347;-71
2021/07/09 05:15:03;;;;;;;;;;;;;;;21.74;70.58;101937.63;5116487;28;19927;-71
2021/07/09 05:17:30;;;;;;;;;;;;;;;21.63;69.51;101935.06;5116764;28;19930;-72
2021/07/09 05:19:57;;;;;;;;;;;;;;;21.43;70.46;101935.88;5116382;28;19931;-72
2021/07/09 05:22:24;;;;;;;;;;;;;;;21.59;70.92;101933.63;5116602;28;19927;-72
2021/07/09 05:24:53;;;;;;;;;;;;;;;21.69;70.57;101931.03;5116063;28;19939;-71
2021/07/09 05:27:20;;;;;;;;;;;;;;;21.80;69.39;101936.28;5116585;28;19931;-71
2021/07/09 05:29:46;;;;;;;;;;;;;;;21.87;68.09;101936.59;5115876;28;19931;-71
2021/07/09 05:32:13;;;;;;;;;;;;;;;21.68;68.76;101926.69;5116185;28;19928;-72
2021/07/09 05:34:40;;;;;;;;;;;;;;;21.83;67.48;101929.88;5116010;28;19923;-72
2021/07/09 05:37:07;;;;;;;;;;;;;;;22.02;67.96;101931.81;5116168;28;19928;-71
2021/07/09 05:39:33;;;;;;;;;;;;;;;22.13;68.02;101923.78;5116020;28;20390;-71
2021/07/09 05:42:02;;;;;;;;;;;;;;;22.26;65.33;101937.69;5115665;28;20393;-72
2021/07/09 05:44:28;;;;;;;;;;;;;;;21.96;65.79;101939.31;5116151;28;19940;-72
2021/07/09 05:46:55;;;;;;;;;;;;;;;22.13;66.28;101937.03;5115650;28;19930;-72
2021/07/09 05:49:22;;;;;;;;;;;;;;;21.92;65.52;101945.84;5116001;28;19924;-71
2021/07/09 05:51:48;;;;;;;;;;;;;;;22.09;64.38;101948.84;5115570;28;19924;-71
2021/07/09 05:54:15;;;;;;;;;;;;;;;21.96;64.97;101949.06;5115783;28;19923;-72
2021/07/09 05:56:41;;;;;;;;;;;;;;;21.80;65.24;101948.69;5115730;28;20396;-70
2021/07/09 05:59:09;;;;;;;;;;;;;;;22.08;65.08;101961.28;5115452;28;19931;-71
2021/07/09 06:01:36;;;;;;;;;;;;;;;22.07;63.55;101958.78;5116184;28;19924;-71
2021/07/09 06:04:03;;;;;;;;;;;;;;;21.99;63.35;101956.78;5115065;28;19931;-71
2021/07/09 06:06:29;;;;;;;;;;;;;;;22.08;63.96;101969.22;5115527;28;20417;-71
2021/07/09 06:08:56;;;;;;;;;;;;;;;22.18;62.51;101974.59;5114146;28;19931;-72
2021/07/09 06:11:25;;;;;;;;;;;;;;;22.38;62.21;101979.06;5115432;28;19924;-72
2021/07/09 06:13:52;;;;;;;;;;;;;;;22.55;63.57;101982.88;5114942;28;20445;-72
2021/07/09 06:16:20;;;;;;;;;;;;;;;22.58;62.49;101982.66;5115309;28;19923;-72
2021/07/09 06:18:47;;;;;;;;;;;;;;;22.49;59.92;101979.94;5115278;28;19923;-71
2021/07/09 06:21:13;;;;;;;;;;;;;;;22.56;60.79;101987.25;5115481;28;19934;-70
2021/07/09 06:23:41;;;;;;;;;;;;;;;22.63;61.08;101992.84;5115074;28;19924;-70
2021/07/09 06:26:07;;;;;;;;;;;;;;;22.47;59.38;101997.78;5114878;28;19930;-71
2021/07/09 06:28:34;;;;;;;;;;;;;;;22.29;59.05;102003.69;5115066;28;19924;-71
2021/07/09 06:31:01;;;;;;;;;;;;;;;22.49;60.05;101999.34;5114930;28;19924;-71
2021/07/09 06:33:29;;;;;;;;;;;;;;;22.41;59.87;101999.16;5115268;28;20293;-70
2021/07/09 06:35:55;;;;;;;;;;;;;;;22.22;59.52;101999.91;5115018;28;19939;-72
2021/07/09 06:38:22;;;;;;;;;;;;;;;22.10;59.01;102000.91;5114901;28;19931;-71
2021/07/09 06:40:48;;;;;;;;;;;;;;;22.10;59.19;101999.09;5114820;28;19928;-72
2021/07/09 06:43:15;;;;;;;;;;;;;;;22.12;59.48;102005.13;5115056;28;19930;-71
2021/07/09 06:45:42;;;;;;;;;;;;;;;22.10;60.16;102008.88;5114677;28;20400;-71
2021/07/09 06:48:09;;;;;;;;;;;;;;;22.13;61.20;102013.91;5114801;28;19924;-71
2021/07/09 06:50:37;;;;;;;;;;;;;;;22.31;59.12;102022.97;5114766;28;19939;-72
2021/07/09 06:53:04;;;;;;;;;;;;;;;22.13;59.64;102011.25;5114689;28;19928;-70
2021/07/09 06:55:30;;;;;;;;;;;;;;;22.28;61.05;102020.59;5114410;28;19931;-70
2021/07/09 06:57:57;;;;;;;;;;;;;;;22.83;56.43;102028.25;5114253;28;19931;-70
2021/07/09 07:00:23;;;;;;;;;;;;;;;22.89;58.20;102029.53;5114703;27;19934;-70
2021/07/09 07:02:50;;;;;;;;;;;;;;;23.03;56.86;102038.00;5114420;28;19924;-70
2021/07/09 07:05:17;;;;;;;;;;;;;;;23.56;56.02;102036.03;5114398;28;19931;-70
2021/07/09 07:07:45;;;;;;;;;;;;;;;23.77;53.98;102047.38;5114315;28;19935;-70
2021/07/09 07:10:12;;;;;;;;;;;;;;;24.06;49.84;102044.72;5114183;28;20274;-70
2021/07/09 07:12:41;;;;;;;;;;;;;;;24.45;50.17;102042.00;5114034;28;19923;-71
2021/07/09 07:15:09;;;;;;;;;;;;;;;25.06;47.61;102047.81;5113847;28;19930;-71
2021/07/09 07:17:37;;;;;;;;;;;;;;;24.09;51.87;102055.06;5114365;28;19930;-69
2021/07/09 07:20:04;;;;;;;;;;;;;;;24.94;46.50;102045.31;5113671;28;19928;-68
2021/07/09 07:22:31;;;;;;;;;;;;;;;25.26;46.73;102052.06;5114251;28;19924;-68
2021/07/09 07:24:59;;;;;;;;;;;;;;;24.99;46.59;102059.03;5113567;28;19924;-68
2021/07/09 07:27:27;;;;;;;;;;;;;;;25.11;44.31;102054.34;5114231;28;19924;-68
2021/07/09 07:29:55;;;;;;;;;;;;;;;25.57;43.62;102052.56;5113965;28;19935;-68
2021/07/09 07:32:21;;;;;;;;;;;;;;;26.14;41.93;102054.06;5114086;28;19923;-68
2021/07/09 07:34:48;;;;;;;;;;;;;;;26.73;42.92;102044.47;5113737;28;19924;-69
2021/07/09 07:37:15;;;;;;;;;;;;;;;27.91;41.34;102060.50;5113731;28;19942;-69
2021/07/09 07:39:42;;;;;;;;;;;;;;;27.70;41.90;102048.44;5113618;28;20416;-68
2021/07/09 07:42:10;;;;;;;;;;;;;;;28.34;38.79;102058.47;5113425;28;19959;-69
2021/07/09 07:44:36;;;;;;;;;;;;;;;27.71;40.38;102054.63;5113535;28;19924;-68
2021/07/09 07:47:03;;;;;;;;;;;;;;;27.14;41.92;102052.63;5113153;28;20390;-70
2021/07/09 07:49:30;;;;;;;;;;;;;;;27.59;42.22;102059.44;5113820;28;19924;-70
2021/07/09 07:51:57;;;;;;;;;;;;;;;29.02;38.86;102057.94;5113247;28;19924;-70
2021/07/09 07:54:24;;;;;;;;;;;;;;;29.65;37.88;102058.81;5113375;28;19924;-70
2021/07/09 07:56:51;;;;;;;;;;;;;;;28.74;38.69;102059.41;5113289;27;19924;-70
2021/07/09 07:59:19;;;;;;;;;;;;;;;28.41;39.43;102071.00;5113640;28;19931;-70
2021/07/09 08:01:47;;;;;;;;;;;;;;;27.45;40.37;102068.13;5112659;28;20138;-69
2021/07/09 08:04:14;;;;;;;;;;;;;;;27.54;40.73;102065.31;5113489;28;19930;-69
2021/07/09 08:06:40;;;;;;;;;;;;;;;28.46;39.33;102048.25;5113028;28;19923;-70
2021/07/09 08:09:08;;;;;;;;;;;;;;;27.44;41.38;102058.44;5113261;28;19923;-69
2021/07/09 08:11:34;;;;;;;;;;;;;;;28.51;40.42;102057.44;5113450;28;19928;-69
2021/07/09 08:14:01;;;;;;;;;;;;;;;29.45;39.22;102057.56;5113205;28;19931;-69
2021/07/09 08:16:29;;;;;;;;;;;;;;;29.07;37.53;102054.75;5113401;27;19924;-69
2021/07/09 08:18:55;;;;;;;;;;;;;;;27.36;40.79;102048.56;5112712;28;19923;-69
2021/07/09 08:21:22;;;;;;;;;;;;;;;29.17;37.40;102057.22;5113055;28;20022;-69
2021/07/09 08:23:49;;;;;;;;;;;;;;;29.75;37.10;102047.84;5112705;28;20370;-70
2021/07/09 08:26:16;;;;;;;;;;;;;;;29.84;36.12;102053.97;5112917;28;19931;-70
2021/07/09 08:28:42;;;;;;;;;;;;;;;30.40;36.35;102054.47;5112894;28;20305;-70
2021/07/09 08:31:09;;;;;;;;;;;;;;;30.78;35.95;102059.75;5112683;28;19947;-70
2021/07/09 08:33:37;;;;;;;;;;;;;;;30.39;36.27;102063.50;5112812;28;19931;-69
2021/07/09 08:36:04;;;;;;;;;;;;;;;31.44;35.46;102063.28;5112921;28;19938;-73
2021/07/09 08:38:30;;;;;;;;;;;;;;;31.42;34.41;102069.88;5112765;28;19931;-73
2021/07/09 08:40:57;;;;;;;;;;;;;;;31.02;34.83;102070.19;5112856;28;19946;-73
2021/07/09 08:43:24;;;;;;;;;;;;;;;30.69;35.93;102058.16;5112975;28;19938;-73
2021/07/09 08:45:50;;;;;;;;;;;;;;;29.74;37.26;102068.44;5112499;28;20377;-69
2021/07/09 08:48:18;;;;;;;;;;;;;;;30.67;35.57;102062.88;5112737;28;19930;-69
2021/07/09 08:50:46;;;;;;;;;;;;;;;31.14;33.69;102050.91;5112773;28;19925;-70
2021/07/09 08:53:13;;;;;;;;;;;;;;;31.15;34.50;102063.31;5113041;28;19931;-70
2021/07/09 08:55:39;;;;;;;;;;;;;;;30.97;35.52;102059.19;5112334;28;19923;-69
2021/07/09 08:58:06;;;;;;;;;;;;;;;31.09;36.00;102062.22;5112625;28;19947;-69
2021/07/09 09:00:42;;;;;;;;;;;;;;;29.81;36.50;102054.31;5112661;28;20327;-69
2021/07/09 09:03:17;;;;;;;;;;;;;;;28.71;39.18;102057.91;5113018;28;19931;-69
2021/07/09 09:05:44;;;;;;;;;;;;;;;29.28;37.51;102054.97;5112676;28;19931;-69
2021/07/09 09:08:13;;;;;;;;;;;;;;;29.83;38.32;102057.66;5112611;28;19924;-70
2021/07/09 09:10:40;;;;;;;;;;;;;;;31.77;34.25;102061.91;5112835;28;19924;-70
2021/07/09 09:13:08;;;;;;;;;;;;;;;31.68;34.62;102063.91;5112523;28;19935;-70
2021/07/09 09:15:35;;;;;;;;;;;;;;;31.00;35.85;102072.22;5112853;28;19923;-69
2021/07/09 09:18:02;;;;;;;;;;;;;;;32.28;33.44;102075.19;5112255;28;20367;-70
2021/07/09 09:20:29;;;;;;;;;;;;;;;32.59;33.55;102073.94;5112342;28;19930;-70
2021/07/09 09:22:56;;;;;;;;;;;;;;;31.79;34.21;102078.69;5112565;28;19924;-70
2021/07/09 09:25:26;;;;;;;;;;;;;;;32.25;33.45;102075.56;5112313;28;19923;-70
2021/07/09 09:28:03;;;;;;;;;;;;;;;31.21;34.02;102076.84;5112407;28;19924;-70
2021/07/09 09:30:29;;;;;;;;;;;;;;;32.12;34.64;102078.19;5112591;28;19924;-70
2021/07/09 09:32:56;;;;;;;;;;;;;;;31.41;34.35;102070.88;5112424;28;19923;-70
2021/07/09 09:35:24;;;;;;;;;;;;;;;32.52;32.52;102087.38;5112328;28;19924;-69
2021/07/09 09:37:51;;;;;;;;;;;;;;;32.39;32.95;102080.00;5112023;28;19924;-69
2021/07/09 09:40:19;;;;;;;;;;;;;;;32.07;33.68;102078.75;5112602;28;19984;-70
2021/07/09 09:42:47;;;;;;;;;;;;;;;33.02;32.36;102069.22;5112703;28;19924;-70
2021/07/09 09:45:14;;;;;;;;;;;;;;;31.72;34.52;102070.56;5115871;28;19933;-69
2021/07/09 09:47:41;;;;;;;;;;;;;;;32.22;33.11;102068.72;5116239;28;20026;-69
2021/07/09 09:50:08;;;;;;;;;;;;;;;33.32;30.93;102060.78;5115911;28;19931;-69
2021/07/09 09:52:36;;;;;;;;;;;;;;;33.09;31.61;102064.69;5116037;28;19931;-69
2021/07/09 09:55:04;;;;;;;;;;;;;;;33.16;31.96;102070.91;5115233;28;19924;-69
2021/07/09 09:57:30;;;;;;;;;;;;;;;32.25;33.18;102062.94;5116020;28;19924;-69
2021/07/09 09:59:58;;;;;;;;;;;;;;;33.10;32.24;102069.03;5115370;28;19928;-70
2021/07/09 10:02:25;;;;;;;;;;;;;;;34.61;29.67;102068.50;5115372;28;19924;-69
2021/07/09 10:04:53;;;;;;;;;;;;;;;34.60;30.17;102064.13;5115208;28;20282;-70
2021/07/09 10:07:20;;;;;;;;;;;;;;;32.65;31.67;102070.44;5115460;28;20293;-70
2021/07/09 10:09:46;;;;;;;;;;;;;;;32.73;31.78;102062.22;5115798;28;19950;-70
2021/07/09 10:12:16;;;;;;;;;;;;;;;33.40;31.29;102064.13;5115317;28;20385;-70
2021/07/09 10:14:44;;;;;;;;;;;;;;;33.40;30.53;102057.91;5115592;28;19947;-70
2021/07/09 10:17:14;;;;;;;;;;;;;;;31.95;32.35;102072.22;5115001;28;20286;-69
2021/07/09 10:19:43;;;;;;;;;;;;;;;32.47;31.39;102076.31;5115566;28;19930;-69
2021/07/09 10:22:10;;;;;;;;;;;;;;;32.23;33.71;102073.06;5115302;28;19930;-69
2021/07/09 10:24:41;;;;;;;;;;;;;;;33.50;30.74;102061.03;5115358;28;19927;-70
2021/07/09 10:27:08;;;;;;;;;;;;;;;31.82;31.80;102065.66;5114840;28;20462;-69
2021/07/09 10:29:35;;;;;;;;;;;;;;;30.77;33.78;102060.75;5115389;28;19946;-69
2021/07/09 10:32:04;;;;;;;;;;;;;;;32.36;32.00;102071.50;5115009;28;19924;-69
2021/07/09 10:34:34;;;;;;;;;;;;;;;33.18;31.08;102068.84;5115046;28;19931;-69
2021/07/09 10:37:01;;;;;;;;;;;;;;;31.33;32.27;102065.59;5114672;28;20441;-69
2021/07/09 10:39:48;;;;;;;;;;;;;;;32.50;32.18;102070.59;5114788;28;19924;-69
2021/07/09 10:42:26;;;;;;;;;;;;;;;33.55;30.56;102072.06;5114754;28;20297;-69
2021/07/09 10:45:00;;;;;;;;;;;;;;;33.35;29.61;102066.59;5114876;28;19942;-69
2021/07/09 10:47:36;;;;;;;;;;;;;;;34.10;30.04;102069.19;5114846;28;20290;-69
2021/07/09 10:50:05;;;;;;;;;;;;;;;33.93;28.62;102076.03;5114631;28;19930;-69
2021/07/09 10:52:51;;;;;;;;;;;;;;;33.12;29.20;102075.06;5114875;28;19930;-69
2021/07/09 10:55:45;;;;;;;;;;;;;;;33.27;28.62;102069.50;5113711;28;19927;-69
2021/07/09 10:58:19;;;;;;;;;;;;;;;34.52;27.66;102072.44;5077887;28;19924;-69
2021/07/09 11:00:46;;;;;;;;;;;;;;;34.42;26.99;102069.34;5114721;28;20010;-69
2021/07/09 11:03:22;;;;;;;;;;;;;;;35.23;26.69;102063.47;5114788;28;19924;-69
2021/07/09 11:06:00;;;;;;;;;;;;;;;34.79;27.33;102073.22;5114115;28;19928;-69
2021/07/09 11:08:37;;;;;;;;;;;;;;;33.07;28.60;102079.41;5114587;28;19924;-69
2021/07/09 11:11:05;;;;;;;;;;;;;;;32.71;30.03;102080.44;5114317;28;19990;-69
2021/07/09 11:13:49;;;;;;;;;;;;;;;33.09;27.48;102080.00;5114513;28;19925;-69
2021/07/09 11:16:20;;;;;;;;;;;;;;;31.62;29.06;102084.31;5114115;28;20467;-69
2021/07/09 11:18:49;;;;;;;;;;;;;;;32.52;28.96;102093.63;5114156;28;20294;-68
2021/07/09 11:21:18;;;;;;;;;;;;;;;31.83;29.21;102090.72;5114344;28;19924;-68
2021/07/09 11:23:53;;;;;;;;;;;;;;;33.28;27.25;102079.25;5114145;28;20383;-68
2021/07/09 11:26:20;;;;;;;;;;;;;;;33.52;28.19;102080.53;5113923;28;19931;-69
2021/07/09 11:28:48;;;;;;;;;;;;;;;34.35;27.24;102085.59;5114010;28;19931;-69
2021/07/09 11:31:29;;;;;;;;;;;;;;;36.58;23.09;102092.78;5114097;28;20023;-69
2021/07/09 11:34:00;;;;;;;;;;;;;;;34.86;24.14;102084.84;5113694;28;20289;-68
2021/07/09 11:36:28;;;;;;;;;;;;;;;34.34;25.43;102083.06;5114119;28;19924;-68
2021/07/09 11:39:08;;;;;;;;;;;;;;;33.16;26.48;102086.25;5113373;28;19928;-68
2021/07/09 11:41:34;;;;;;;;;;;;;;;33.96;25.74;102087.25;5113703;28;19924;-69
2021/07/09 11:44:01;;;;;;;;;;;;;;;33.33;25.14;102100.22;5113333;28;19923;-69
2021/07/09 11:46:28;;;;;;;;;;;;;;;32.92;25.86;102101.91;5113578;28;20381;-69
2021/07/09 11:49:00;;;;;;;;;;;;;;;32.39;27.56;102103.41;5113189;28;20002;-68
2021/07/09 11:51:28;;;;;;;;;;;;;;;33.14;26.76;102096.41;5113842;28;19924;-69
2021/07/09 11:54:04;;;;;;;;;;;;;;;34.15;25.69;102100.97;5113267;28;19958;-70
2021/07/09 11:56:37;;;;;;;;;;;;;;;33.38;28.37;102095.88;5114017;28;19930;-69
2021/07/09 11:59:14;;;;;;;;;;;;;;;32.49;30.05;102099.38;5113081;28;19931;-69
2021/07/09 12:01:40;;;;;;;;;;;;;;;34.36;28.15;102089.94;5113598;28;19931;-70
2021/07/09 12:04:07;;;;;;;;;;;;;;;35.04;26.43;102091.41;5113060;28;19942;-70
2021/07/09 12:06:35;;;;;;;;;;;;;;;35.48;24.68;102087.00;5113145;28;19923;-70
2021/07/09 12:09:02;;;;;;;;;;;;;;;35.91;23.72;102094.44;5112884;28;20537;-70
2021/07/09 12:11:29;;;;;;;;;;;;;;;35.94;24.08;102093.97;5113122;28;19935;-69
2021/07/09 12:14:05;;;;;;;;;;;;;;;35.17;24.39;102102.19;5113148;28;19924;-70
2021/07/09 12:16:32;;;;;;;;;;;;;;;33.94;26.10;102100.13;5113153;28;19931;-69
2021/07/09 12:18:59;;;;;;;;;;;;;;;36.64;21.53;102111.91;5112712;28;20343;-69
2021/07/09 12:21:27;;;;;;;;;;;;;;;34.51;25.53;102102.38;5112986;28;19930;-69
2021/07/09 12:24:04;;;;;;;;;;;;;;;35.67;23.93;102094.19;5112705;28;20447;-70
2021/07/09 12:26:31;;;;;;;;;;;;;;;37.00;21.85;102103.75;5113263;28;19930;-69
2021/07/09 12:28:59;;;;;;;;;;;;;;;36.37;23.20;102096.72;5112773;28;20117;-69
2021/07/09 12:31:26;;;;;;;;;;;;;;;35.80;22.96;102095.97;5112926;28;19967;-69
2021/07/09 12:33:53;;;;;;;;;;;;;;;34.36;25.35;102095.34;5112912;28;19931;-69
2021/07/09 12:36:20;;;;;;;;;;;;;;;33.58;26.55;102085.16;5113194;28;19930;-69
2021/07/09 12:38:56;;;;;;;;;;;;;;;33.22;26.04;102096.25;5112907;28;20408;-69